sensor_id;sensor_type;location;lat;lon;timestamp;pressure;altitude;pressure_sealevel;temperature;humidity
77685;BME280;66844;46.092;18.268;2024-01-11T00:00:02;100659.56;;;-4.84;79.22
77685;BME280;66844;46.092;18.268;2024-01-11T00:00:35;100665.47;;;-4.92;80.15
77685;BME280;66844;46.092;18.268;2024-01-11T00:01:10;100667.00;;;-4.98;80.59
77685;BME280;66844;46.092;18.268;2024-01-11T00:01:46;100667.66;;;-5.08;81.00
77685;BME280;66844;46.092;18.268;2024-01-11T00:02:18;100664.00;;;-5.16;81.79
77685;BME280;66844;46.092;18.268;2024-01-11T00:02:51;100665.50;;;-5.26;83.74
77685;BME280;66844;46.092;18.268;2024-01-11T00:03:23;100670.69;;;-5.24;83.97
77685;BME280;66844;46.092;18.268;2024-01-11T00:03:55;100672.34;;;-5.28;83.61
77685;BME280;66844;46.092;18.268;2024-01-11T00:04:26;100668.09;;;-5.26;83.56
77685;BME280;66844;46.092;18.268;2024-01-11T00:04:58;100667.25;;;-5.25;83.47
77685;BME280;66844;46.092;18.268;2024-01-11T00:05:30;100667.31;;;-5.22;83.16
77685;BME280;66844;46.092;18.268;2024-01-11T00:06:03;100662.09;;;-5.23;83.36
77685;BME280;66844;46.092;18.268;2024-01-11T00:06:43;100667.31;;;-5.22;82.97
77685;BME280;66844;46.092;18.268;2024-01-11T00:07:15;100662.91;;;-5.24;84.09
77685;BME280;66844;46.092;18.268;2024-01-11T00:07:48;100668.16;;;-5.23;83.82
77685;BME280;66844;46.092;18.268;2024-01-11T00:08:21;100662.09;;;-5.23;84.62
77685;BME280;66844;46.092;18.268;2024-01-11T00:08:54;100656.03;;;-5.24;84.41
77685;BME280;66844;46.092;18.268;2024-01-11T00:09:26;100656.78;;;-5.29;84.45
77685;BME280;66844;46.092;18.268;2024-01-11T00:09:58;100665.38;;;-5.30;84.95
77685;BME280;66844;46.092;18.268;2024-01-11T00:10:29;100660.75;;;-5.44;86.27
77685;BME280;66844;46.092;18.268;2024-01-11T00:11:01;100661.41;;;-5.51;85.93
77685;BME280;66844;46.092;18.268;2024-01-11T00:11:33;100659.63;;;-5.53;86.67
77685;BME280;66844;46.092;18.268;2024-01-11T00:12:05;100657.06;;;-5.52;86.43
77685;BME280;66844;46.092;18.268;2024-01-11T00:12:37;100656.22;;;-5.51;86.01
77685;BME280;66844;46.092;18.268;2024-01-11T00:13:09;100653.72;;;-5.48;86.15
77685;BME280;66844;46.092;18.268;2024-01-11T00:13:41;100659.66;;;-5.52;85.43
77685;BME280;66844;46.092;18.268;2024-01-11T00:14:13;100659.66;;;-5.52;85.88
77685;BME280;66844;46.092;18.268;2024-01-11T00:14:46;100652.72;;;-5.53;85.52
77685;BME280;66844;46.092;18.268;2024-01-11T00:15:18;100659.66;;;-5.52;85.75
77685;BME280;66844;46.092;18.268;2024-01-11T00:15:50;100654.47;;;-5.52;84.99
77685;BME280;66844;46.092;18.268;2024-01-11T00:16:22;100656.13;;;-5.55;84.90
77685;BME280;66844;46.092;18.268;2024-01-11T00:16:54;100657.84;;;-5.56;84.70
77685;BME280;66844;46.092;18.268;2024-01-11T00:17:26;100650.88;;;-5.57;84.32
77685;BME280;66844;46.092;18.268;2024-01-11T00:17:58;100650.88;;;-5.57;83.99
77685;BME280;66844;46.092;18.268;2024-01-11T00:18:30;100656.91;;;-5.58;84.52
77685;BME280;66844;46.092;18.268;2024-01-11T00:19:02;100655.25;;;-5.56;84.30
77685;BME280;66844;46.092;18.268;2024-01-11T00:19:34;100653.47;;;-5.57;83.97
77685;BME280;66844;46.092;18.268;2024-01-11T00:20:07;100651.72;;;-5.58;83.88
77685;BME280;66844;46.092;18.268;2024-01-11T00:20:39;100654.41;;;-5.55;84.35
77685;BME280;66844;46.092;18.268;2024-01-11T00:21:11;100651.72;;;-5.58;84.87
77685;BME280;66844;46.092;18.268;2024-01-11T00:21:43;100651.78;;;-5.56;85.55
77685;BME280;66844;46.092;18.268;2024-01-11T00:22:15;100657.00;;;-5.55;85.04
77685;BME280;66844;46.092;18.268;2024-01-11T00:22:47;100661.31;;;-5.55;85.15
77685;BME280;66844;46.092;18.268;2024-01-11T00:23:19;100648.25;;;-5.58;85.74
77685;BME280;66844;46.092;18.268;2024-01-11T00:23:51;100656.97;;;-5.56;85.65
77685;BME280;66844;46.092;18.268;2024-01-11T00:24:23;100654.41;;;-5.55;84.73
77685;BME280;66844;46.092;18.268;2024-01-11T00:24:55;100650.97;;;-5.54;85.68
77685;BME280;66844;46.092;18.268;2024-01-11T00:25:27;100647.47;;;-5.56;85.00
77685;BME280;66844;46.092;18.268;2024-01-11T00:25:59;100652.78;;;-5.51;85.35
77685;BME280;66844;46.092;18.268;2024-01-11T00:26:31;100653.59;;;-5.52;85.59
77685;BME280;66844;46.092;18.268;2024-01-11T00:27:03;100652.66;;;-5.54;85.64
77685;BME280;66844;46.092;18.268;2024-01-11T00:27:35;100652.66;;;-5.54;84.92
77685;BME280;66844;46.092;18.268;2024-01-11T00:28:07;100660.56;;;-5.51;85.35
77685;BME280;66844;46.092;18.268;2024-01-11T00:28:39;100649.22;;;-5.55;85.46
77685;BME280;66844;46.092;18.268;2024-01-11T00:29:11;100650.94;;;-5.55;84.53
77685;BME280;66844;46.092;18.268;2024-01-11T00:29:43;100657.78;;;-5.57;85.41
77685;BME280;66844;46.092;18.268;2024-01-11T00:30:15;100650.00;;;-5.57;85.76
77685;BME280;66844;46.092;18.268;2024-01-11T00:30:47;100644.00;;;-5.56;84.90
77685;BME280;66844;46.092;18.268;2024-01-11T00:31:19;100644.91;;;-5.54;85.03
77685;BME280;66844;46.092;18.268;2024-01-11T00:31:51;100644.81;;;-5.57;84.79
77685;BME280;66844;46.092;18.268;2024-01-11T00:32:23;100645.66;;;-5.58;84.71
77685;BME280;66844;46.092;18.268;2024-01-11T00:32:55;100642.22;;;-5.59;84.79
77685;BME280;66844;46.092;18.268;2024-01-11T00:33:27;100642.22;;;-5.57;84.86
77685;BME280;66844;46.092;18.268;2024-01-11T00:33:59;100637.94;;;-5.57;85.16
77685;BME280;66844;46.092;18.268;2024-01-11T00:34:31;100632.06;;;-5.50;84.47
77685;BME280;66844;46.092;18.268;2024-01-11T00:35:04;100643.25;;;-5.51;85.04
77685;BME280;66844;46.092;18.268;2024-01-11T00:35:36;100640.66;;;-5.52;84.68
77685;BME280;66844;46.092;18.268;2024-01-11T00:36:08;100640.66;;;-5.51;84.82
77685;BME280;66844;46.092;18.268;2024-01-11T00:36:40;100626.03;;;-5.49;85.04
77685;BME280;66844;46.092;18.268;2024-01-11T00:37:12;100634.66;;;-5.50;85.19
77685;BME280;66844;46.092;18.268;2024-01-11T00:37:44;100632.03;;;-5.51;85.28
77685;BME280;66844;46.092;18.268;2024-01-11T00:38:16;100639.81;;;-5.51;85.04
77685;BME280;66844;46.092;18.268;2024-01-11T00:38:49;100626.75;;;-5.54;85.57
77685;BME280;66844;46.092;18.268;2024-01-11T00:39:21;100627.63;;;-5.54;85.70
77685;BME280;66844;46.092;18.268;2024-01-11T00:39:53;100628.59;;;-5.50;85.51
77685;BME280;66844;46.092;18.268;2024-01-11T00:40:25;100630.34;;;-5.49;86.39
77685;BME280;66844;46.092;18.268;2024-01-11T00:40:57;100629.44;;;-5.51;86.25
77685;BME280;66844;46.092;18.268;2024-01-11T00:41:29;100627.75;;;-5.49;85.97
77685;BME280;66844;46.092;18.268;2024-01-11T00:42:01;100631.28;;;-5.47;86.49
77685;BME280;66844;46.092;18.268;2024-01-11T00:42:33;100627.13;;;-5.39;87.12
77685;BME280;66844;46.092;18.268;2024-01-11T00:43:06;100625.41;;;-5.40;87.70
77685;BME280;66844;46.092;18.268;2024-01-11T00:43:38;100634.88;;;-5.41;87.19
77685;BME280;66844;46.092;18.268;2024-01-11T00:44:10;100629.53;;;-5.47;87.09
77685;BME280;66844;46.092;18.268;2024-01-11T00:44:42;100633.00;;;-5.46;87.49
77685;BME280;66844;46.092;18.268;2024-01-11T00:45:14;100631.19;;;-5.50;87.36
77685;BME280;66844;46.092;18.268;2024-01-11T00:45:46;100619.03;;;-5.53;87.73
77685;BME280;66844;46.092;18.268;2024-01-11T00:46:18;100627.69;;;-5.52;86.79
77685;BME280;66844;46.092;18.268;2024-01-11T00:46:50;100623.31;;;-5.53;87.10
77685;BME280;66844;46.092;18.268;2024-01-11T00:47:22;100627.69;;;-5.52;86.95
77685;BME280;66844;46.092;18.268;2024-01-11T00:47:54;100627.63;;;-5.54;87.48
77685;BME280;66844;46.092;18.268;2024-01-11T00:48:26;100625.03;;;-5.54;87.52
77685;BME280;66844;46.092;18.268;2024-01-11T00:48:58;100627.50;;;-5.58;87.40
77685;BME280;66844;46.092;18.268;2024-01-11T00:49:30;100621.31;;;-5.65;87.57
77685;BME280;66844;46.092;18.268;2024-01-11T00:50:03;100628.25;;;-5.64;87.97
77685;BME280;66844;46.092;18.268;2024-01-11T00:50:35;100630.00;;;-5.63;87.69
77685;BME280;66844;46.092;18.268;2024-01-11T00:51:07;100628.31;;;-5.61;87.35
77685;BME280;66844;46.092;18.268;2024-01-11T00:51:39;100627.50;;;-5.60;87.67
77685;BME280;66844;46.092;18.268;2024-01-11T00:52:11;100616.31;;;-5.57;87.11
77685;BME280;66844;46.092;18.268;2024-01-11T00:52:45;100622.44;;;-5.54;86.97
77685;BME280;66844;46.092;18.268;2024-01-11T00:53:17;100619.72;;;-5.60;87.12
77685;BME280;66844;46.092;18.268;2024-01-11T00:53:49;100622.25;;;-5.63;87.17
77685;BME280;66844;46.092;18.268;2024-01-11T00:54:21;100620.53;;;-5.61;87.46
77685;BME280;66844;46.092;18.268;2024-01-11T00:54:53;100624.97;;;-5.57;87.52
77685;BME280;66844;46.092;18.268;2024-01-11T00:55:25;100617.25;;;-5.55;86.41
77685;BME280;66844;46.092;18.268;2024-01-11T00:55:57;100614.66;;;-5.54;86.74
77685;BME280;66844;46.092;18.268;2024-01-11T00:56:29;100622.50;;;-5.52;87.22
77685;BME280;66844;46.092;18.268;2024-01-11T00:57:01;100624.25;;;-5.51;87.53
77685;BME280;66844;46.092;18.268;2024-01-11T00:57:33;100623.41;;;-5.50;87.47
77685;BME280;66844;46.092;18.268;2024-01-11T00:58:05;100619.09;;;-5.50;86.66
77685;BME280;66844;46.092;18.268;2024-01-11T00:58:38;100620.84;;;-5.49;86.91
77685;BME280;66844;46.092;18.268;2024-01-11T00:59:10;100622.63;;;-5.48;87.83
77685;BME280;66844;46.092;18.268;2024-01-11T00:59:42;100613.78;;;-5.54;87.53
77685;BME280;66844;46.092;18.268;2024-01-11T01:00:14;100621.69;;;-5.50;88.31
77685;BME280;66844;46.092;18.268;2024-01-11T01:00:46;100620.84;;;-5.49;88.36
77685;BME280;66844;46.092;18.268;2024-01-11T01:01:18;100606.13;;;-5.51;88.30
77685;BME280;66844;46.092;18.268;2024-01-11T01:01:50;100613.97;;;-5.48;88.26
77685;BME280;66844;46.092;18.268;2024-01-11T01:02:22;100619.16;;;-5.47;88.43
77685;BME280;66844;46.092;18.268;2024-01-11T01:02:54;100620.09;;;-5.45;89.24
77685;BME280;66844;46.092;18.268;2024-01-11T01:03:26;100622.69;;;-5.43;88.88
77685;BME280;66844;46.092;18.268;2024-01-11T01:03:59;100620.09;;;-5.45;88.53
77685;BME280;66844;46.092;18.268;2024-01-11T01:04:31;100621.94;;;-5.41;88.60
77685;BME280;66844;46.092;18.268;2024-01-11T01:05:03;100622.81;;;-5.40;88.85
77685;BME280;66844;46.092;18.268;2024-01-11T01:05:35;100624.53;;;-5.39;89.08
77685;BME280;66844;46.092;18.268;2024-01-11T01:06:07;100617.63;;;-5.40;88.54
77685;BME280;66844;46.092;18.268;2024-01-11T01:06:41;100626.28;;;-5.38;88.84
77685;BME280;66844;46.092;18.268;2024-01-11T01:07:13;100624.66;;;-5.34;88.74
77685;BME280;66844;46.092;18.268;2024-01-11T01:07:45;100622.06;;;-5.34;88.12
77685;BME280;66844;46.092;18.268;2024-01-11T01:08:17;100621.16;;;-5.36;88.50
77685;BME280;66844;46.092;18.268;2024-01-11T01:08:49;100621.94;;;-5.39;88.04
77685;BME280;66844;46.092;18.268;2024-01-11T01:09:21;100621.16;;;-5.36;88.82
77685;BME280;66844;46.092;18.268;2024-01-11T01:09:53;100622.88;;;-5.35;88.24
77685;BME280;66844;46.092;18.268;2024-01-11T01:10:25;100623.78;;;-5.35;88.85
77685;BME280;66844;46.092;18.268;2024-01-11T01:10:57;100619.47;;;-5.34;88.61
77685;BME280;66844;46.092;18.268;2024-01-11T01:11:29;100629.84;;;-5.34;88.86
77685;BME280;66844;46.092;18.268;2024-01-11T01:12:01;100621.22;;;-5.33;88.68
77685;BME280;66844;46.092;18.268;2024-01-11T01:12:33;100619.44;;;-5.36;88.76
77685;BME280;66844;46.092;18.268;2024-01-11T01:13:05;100622.03;;;-5.36;89.32
77685;BME280;66844;46.092;18.268;2024-01-11T01:13:37;100624.66;;;-5.34;89.32
77685;BME280;66844;46.092;18.268;2024-01-11T01:14:09;100614.28;;;-5.34;89.18
77685;BME280;66844;46.092;18.268;2024-01-11T01:14:41;100622.94;;;-5.34;88.96
77685;BME280;66844;46.092;18.268;2024-01-11T01:15:13;100620.28;;;-5.35;88.72
77685;BME280;66844;46.092;18.268;2024-01-11T01:15:46;100616.00;;;-5.35;88.78
77685;BME280;66844;46.092;18.268;2024-01-11T01:16:18;100617.81;;;-5.31;89.48
77685;BME280;66844;46.092;18.268;2024-01-11T01:16:50;100618.66;;;-5.32;89.16
77685;BME280;66844;46.092;18.268;2024-01-11T01:17:22;100623.00;;;-5.31;88.97
77685;BME280;66844;46.092;18.268;2024-01-11T01:17:54;100616.88;;;-5.34;89.11
77685;BME280;66844;46.092;18.268;2024-01-11T01:18:26;100626.47;;;-5.30;88.52
77685;BME280;66844;46.092;18.268;2024-01-11T01:18:59;100623.06;;;-5.29;88.92
77685;BME280;66844;46.092;18.268;2024-01-11T01:19:31;100619.59;;;-5.30;89.02
77685;BME280;66844;46.092;18.268;2024-01-11T01:20:05;100621.28;;;-5.30;87.98
77685;BME280;66844;46.092;18.268;2024-01-11T01:20:37;100615.34;;;-5.26;88.58
77685;BME280;66844;46.092;18.268;2024-01-11T01:21:09;100617.94;;;-5.26;88.39
77685;BME280;66844;46.092;18.268;2024-01-11T01:21:41;100625.75;;;-5.25;88.13
77685;BME280;66844;46.092;18.268;2024-01-11T01:22:13;100614.50;;;-5.25;88.19
77685;BME280;66844;46.092;18.268;2024-01-11T01:22:45;100618.00;;;-5.25;87.99
77685;BME280;66844;46.092;18.268;2024-01-11T01:23:17;100619.69;;;-5.25;87.76
77685;BME280;66844;46.092;18.268;2024-01-11T01:23:50;100616.16;;;-5.29;88.52
77685;BME280;66844;46.092;18.268;2024-01-11T01:24:22;100621.34;;;-5.29;88.68
77685;BME280;66844;46.092;18.268;2024-01-11T01:24:53;100622.25;;;-5.27;88.25
77685;BME280;66844;46.092;18.268;2024-01-11T01:25:26;100615.28;;;-5.28;88.52
77685;BME280;66844;46.092;18.268;2024-01-11T01:25:58;100615.41;;;-5.25;87.95
77685;BME280;66844;46.092;18.268;2024-01-11T01:26:30;100618.00;;;-5.25;88.09
77685;BME280;66844;46.092;18.268;2024-01-11T01:27:02;100623.13;;;-5.26;87.95
77685;BME280;66844;46.092;18.268;2024-01-11T01:27:34;100617.94;;;-5.26;87.18
77685;BME280;66844;46.092;18.268;2024-01-11T01:28:06;100611.88;;;-5.27;88.04
77685;BME280;66844;46.092;18.268;2024-01-11T01:28:38;100616.28;;;-5.23;87.46
77685;BME280;66844;46.092;18.268;2024-01-11T01:29:11;100611.09;;;-5.23;87.18
77685;BME280;66844;46.092;18.268;2024-01-11T01:29:43;100615.41;;;-5.25;87.53
77685;BME280;66844;46.092;18.268;2024-01-11T01:30:15;100614.53;;;-5.24;87.40
77685;BME280;66844;46.092;18.268;2024-01-11T01:30:48;100604.13;;;-5.25;87.99
77685;BME280;66844;46.092;18.268;2024-01-11T01:31:21;100607.63;;;-5.25;87.39
77685;BME280;66844;46.092;18.268;2024-01-11T01:31:53;100604.91;;;-5.29;87.24
77685;BME280;66844;46.092;18.268;2024-01-11T01:32:25;100607.56;;;-5.26;87.95
77685;BME280;66844;46.092;18.268;2024-01-11T01:32:57;100609.28;;;-5.27;87.55
77685;BME280;66844;46.092;18.268;2024-01-11T01:33:29;100610.16;;;-5.26;87.98
77685;BME280;66844;46.092;18.268;2024-01-11T01:34:01;100611.94;;;-5.24;87.34
77685;BME280;66844;46.092;18.268;2024-01-11T01:34:34;100607.63;;;-5.25;88.04
77685;BME280;66844;46.092;18.268;2024-01-11T01:35:06;100612.81;;;-5.25;87.80
77685;BME280;66844;46.092;18.268;2024-01-11T01:35:39;100611.06;;;-5.24;87.60
77685;BME280;66844;46.092;18.268;2024-01-11T01:36:12;100610.09;;;-5.28;87.93
77685;BME280;66844;46.092;18.268;2024-01-11T01:36:44;100607.50;;;-5.28;87.70
77685;BME280;66844;46.092;18.268;2024-01-11T01:37:16;100609.22;;;-5.28;87.62
77685;BME280;66844;46.092;18.268;2024-01-11T01:37:47;100606.56;;;-5.31;87.48
77685;BME280;66844;46.092;18.268;2024-01-11T01:38:19;100615.28;;;-5.28;87.37
77685;BME280;66844;46.092;18.268;2024-01-11T01:38:51;100610.09;;;-5.28;86.94
77685;BME280;66844;46.092;18.268;2024-01-11T01:39:23;100607.56;;;-5.26;87.92
77685;BME280;66844;46.092;18.268;2024-01-11T01:39:55;100610.16;;;-5.26;87.40
77685;BME280;66844;46.092;18.268;2024-01-11T01:40:30;100611.88;;;-5.27;86.88
77685;BME280;66844;46.092;18.268;2024-01-11T01:41:02;100610.09;;;-5.28;87.42
77685;BME280;66844;46.092;18.268;2024-01-11T01:41:34;100604.03;;;-5.28;87.44
77685;BME280;66844;46.092;18.268;2024-01-11T01:42:06;100612.75;;;-5.26;87.44
77685;BME280;66844;46.092;18.268;2024-01-11T01:42:45;100606.69;;;-5.27;87.35
77685;BME280;66844;46.092;18.268;2024-01-11T01:43:17;100611.00;;;-5.27;87.28
77685;BME280;66844;46.092;18.268;2024-01-11T01:43:49;100603.19;;;-5.29;87.63
77685;BME280;66844;46.092;18.268;2024-01-11T01:44:21;100604.94;;;-5.28;87.21
77685;BME280;66844;46.092;18.268;2024-01-11T01:44:53;100606.63;;;-5.30;87.23
77685;BME280;66844;46.092;18.268;2024-01-11T01:45:25;100604.03;;;-5.28;87.31
77685;BME280;66844;46.092;18.268;2024-01-11T01:45:59;100609.22;;;-5.28;86.70
77685;BME280;66844;46.092;18.268;2024-01-11T01:46:32;100612.69;;;-5.29;87.35
77685;BME280;66844;46.092;18.268;2024-01-11T01:47:06;100602.31;;;-5.29;87.74
77685;BME280;66844;46.092;18.268;2024-01-11T01:47:40;100604.03;;;-5.30;87.13
77685;BME280;66844;46.092;18.268;2024-01-11T01:48:14;100604.03;;;-5.30;87.11
77685;BME280;66844;46.092;18.268;2024-01-11T01:48:46;100604.03;;;-5.28;87.12
77685;BME280;66844;46.092;18.268;2024-01-11T01:49:18;100607.50;;;-5.28;86.75
77685;BME280;66844;46.092;18.268;2024-01-11T01:49:55;100600.59;;;-5.29;86.99
77685;BME280;66844;46.092;18.268;2024-01-11T01:50:28;100599.84;;;-5.23;87.14
77685;BME280;66844;46.092;18.268;2024-01-11T01:51:01;100603.31;;;-5.23;87.04
77685;BME280;66844;46.092;18.268;2024-01-11T01:51:34;100609.34;;;-5.24;86.92
77685;BME280;66844;46.092;18.268;2024-01-11T01:52:07;100608.41;;;-5.27;87.60
77685;BME280;66844;46.092;18.268;2024-01-11T01:52:42;100605.81;;;-5.27;87.19
77685;BME280;66844;46.092;18.268;2024-01-11T01:53:19;100612.81;;;-5.25;87.73
77685;BME280;66844;46.092;18.268;2024-01-11T01:53:53;100614.50;;;-5.25;87.60
77685;BME280;66844;46.092;18.268;2024-01-11T01:54:26;100606.72;;;-5.25;87.59
77685;BME280;66844;46.092;18.268;2024-01-11T01:54:59;100613.66;;;-5.24;87.43
77685;BME280;66844;46.092;18.268;2024-01-11T01:55:32;100609.31;;;-5.25;87.51
77685;BME280;66844;46.092;18.268;2024-01-11T01:56:06;100611.06;;;-5.24;88.10
77685;BME280;66844;46.092;18.268;2024-01-11T01:56:39;100610.22;;;-5.23;87.26
77685;BME280;66844;46.092;18.268;2024-01-11T01:57:13;100606.69;;;-5.27;88.06
77685;BME280;66844;46.092;18.268;2024-01-11T01:57:46;100615.41;;;-5.25;87.95
77685;BME280;66844;46.092;18.268;2024-01-11T01:58:20;100611.91;;;-5.25;87.71
77685;BME280;66844;46.092;18.268;2024-01-11T01:58:54;100608.44;;;-5.26;88.72
77685;BME280;66844;46.092;18.268;2024-01-11T01:59:27;100610.97;;;-5.29;88.92
77685;BME280;66844;46.092;18.268;2024-01-11T02:00:02;100607.50;;;-5.28;88.61
77685;BME280;66844;46.092;18.268;2024-01-11T02:00:34;100599.72;;;-5.28;88.07
77685;BME280;66844;46.092;18.268;2024-01-11T02:01:06;100601.44;;;-5.30;89.03
77685;BME280;66844;46.092;18.268;2024-01-11T02:01:42;100610.09;;;-5.29;88.58
77685;BME280;66844;46.092;18.268;2024-01-11T02:02:15;100606.63;;;-5.28;89.28
77685;BME280;66844;46.092;18.268;2024-01-11T02:02:50;100610.09;;;-5.29;88.89
77685;BME280;66844;46.092;18.268;2024-01-11T02:03:24;100606.56;;;-5.33;89.52
77685;BME280;66844;46.092;18.268;2024-01-11T02:03:59;100603.91;;;-5.34;89.49
77685;BME280;66844;46.092;18.268;2024-01-11T02:04:31;100606.50;;;-5.36;89.42
77685;BME280;66844;46.092;18.268;2024-01-11T02:05:04;100613.09;;;-5.49;90.58
77685;BME280;66844;46.092;18.268;2024-01-11T02:05:37;100608.72;;;-5.51;91.20
77685;BME280;66844;46.092;18.268;2024-01-11T02:06:09;100609.41;;;-5.57;90.84
77685;BME280;66844;46.092;18.268;2024-01-11T02:06:44;100611.88;;;-5.61;91.80
77685;BME280;66844;46.092;18.268;2024-01-11T02:07:18;100610.16;;;-5.62;91.61
77685;BME280;66844;46.092;18.268;2024-01-11T02:07:51;100606.50;;;-5.70;91.82
77685;BME280;66844;46.092;18.268;2024-01-11T02:08:25;100608.13;;;-5.74;92.55
77685;BME280;66844;46.092;18.268;2024-01-11T02:08:59;100603.91;;;-5.70;92.71
77685;BME280;66844;46.092;18.268;2024-01-11T02:09:31;100604.72;;;-5.71;91.52
77685;BME280;66844;46.092;18.268;2024-01-11T02:10:04;100596.91;;;-5.73;91.61
77685;BME280;66844;46.092;18.268;2024-01-11T02:10:36;100608.22;;;-5.71;91.30
77685;BME280;66844;46.092;18.268;2024-01-11T02:11:10;100606.31;;;-5.76;91.64
77685;BME280;66844;46.092;18.268;2024-01-11T02:11:44;100607.78;;;-5.88;91.65
77685;BME280;66844;46.092;18.268;2024-01-11T02:12:16;100609.56;;;-5.85;91.50
77685;BME280;66844;46.092;18.268;2024-01-11T02:12:49;100606.13;;;-5.84;91.55
77685;BME280;66844;46.092;18.268;2024-01-11T02:13:21;100610.47;;;-5.84;91.64
77685;BME280;66844;46.092;18.268;2024-01-11T02:13:53;100612.16;;;-5.85;91.35
77685;BME280;66844;46.092;18.268;2024-01-11T02:14:26;100611.28;;;-5.85;91.99
77685;BME280;66844;46.092;18.268;2024-01-11T02:14:58;100612.16;;;-5.86;91.67
77685;BME280;66844;46.092;18.268;2024-01-11T02:15:30;100613.88;;;-5.85;91.40
77685;BME280;66844;46.092;18.268;2024-01-11T02:16:03;100600.75;;;-5.93;91.03
77685;BME280;66844;46.092;18.268;2024-01-11T02:16:36;100607.78;;;-5.89;90.88
77685;BME280;66844;46.092;18.268;2024-01-11T02:17:08;100610.38;;;-5.89;90.96
77685;BME280;66844;46.092;18.268;2024-01-11T02:17:40;100607.69;;;-5.92;91.37
77685;BME280;66844;46.092;18.268;2024-01-11T02:18:13;100609.41;;;-5.93;91.30
77685;BME280;66844;46.092;18.268;2024-01-11T02:18:46;100611.94;;;-5.96;91.74
77685;BME280;66844;46.092;18.268;2024-01-11T02:19:19;100609.22;;;-5.99;90.98
77685;BME280;66844;46.092;18.268;2024-01-11T02:19:51;100614.41;;;-5.99;90.98
77685;BME280;66844;46.092;18.268;2024-01-11T02:20:24;100615.28;;;-6.00;90.94
77685;BME280;66844;46.092;18.268;2024-01-11T02:20:56;100613.50;;;-6.01;91.21
77685;BME280;66844;46.092;18.268;2024-01-11T02:21:28;100611.81;;;-6.00;91.42
77685;BME280;66844;46.092;18.268;2024-01-11T02:22:08;100616.09;;;-6.01;91.36
77685;BME280;66844;46.092;18.268;2024-01-11T02:22:50;100617.00;;;-5.99;91.34
77685;BME280;66844;46.092;18.268;2024-01-11T02:23:24;100620.34;;;-6.03;91.26
77685;BME280;66844;46.092;18.268;2024-01-11T02:24:04;100610.84;;;-6.04;91.60
77685;BME280;66844;46.092;18.268;2024-01-11T02:24:36;100612.69;;;-6.00;91.36
77685;BME280;66844;46.092;18.268;2024-01-11T02:25:08;100608.19;;;-6.05;90.54
77685;BME280;66844;46.092;18.268;2024-01-11T02:25:40;100612.50;;;-6.06;90.92
77685;BME280;66844;46.092;18.268;2024-01-11T02:26:15;100608.06;;;-6.10;90.79
77685;BME280;66844;46.092;18.268;2024-01-11T02:27:31;100606.41;;;-6.08;90.97
77685;BME280;66844;46.092;18.268;2024-01-11T02:28:03;100609.88;;;-6.07;91.05
77685;BME280;66844;46.092;18.268;2024-01-11T02:28:35;100601.19;;;-6.09;90.87
77685;BME280;66844;46.092;18.268;2024-01-11T02:29:07;100605.53;;;-6.08;90.99
77685;BME280;66844;46.092;18.268;2024-01-11T02:29:39;100607.25;;;-6.09;91.39
77685;BME280;66844;46.092;18.268;2024-01-11T02:30:11;100597.63;;;-6.13;91.60
77685;BME280;66844;46.092;18.268;2024-01-11T02:30:43;100602.00;;;-6.10;91.70
77685;BME280;66844;46.092;18.268;2024-01-11T02:31:15;100599.41;;;-6.12;91.07
77685;BME280;66844;46.092;18.268;2024-01-11T02:31:48;100602.81;;;-6.13;91.75
77685;BME280;66844;46.092;18.268;2024-01-11T02:32:20;100595.13;;;-6.10;91.63
77685;BME280;66844;46.092;18.268;2024-01-11T02:32:53;100602.06;;;-6.09;91.14
77685;BME280;66844;46.092;18.268;2024-01-11T02:33:25;100592.63;;;-6.07;91.69
77685;BME280;66844;46.092;18.268;2024-01-11T02:33:58;100607.38;;;-6.04;91.64
77685;BME280;66844;46.092;18.268;2024-01-11T02:34:30;100601.38;;;-6.02;91.51
77685;BME280;66844;46.092;18.268;2024-01-11T02:35:03;100604.84;;;-6.01;91.82
77685;BME280;66844;46.092;18.268;2024-01-11T02:35:36;100601.44;;;-6.00;91.66
77685;BME280;66844;46.092;18.268;2024-01-11T02:36:13;100598.78;;;-6.03;91.71
77685;BME280;66844;46.092;18.268;2024-01-11T02:36:46;100600.44;;;-6.05;91.91
77685;BME280;66844;46.092;18.268;2024-01-11T02:37:18;100603.97;;;-6.03;91.73
77685;BME280;66844;46.092;18.268;2024-01-11T02:37:51;100606.63;;;-6.00;92.30
77685;BME280;66844;46.092;18.268;2024-01-11T02:38:23;100600.56;;;-6.01;92.37
77685;BME280;66844;46.092;18.268;2024-01-11T02:38:55;100598.78;;;-6.02;91.67
77685;BME280;66844;46.092;18.268;2024-01-11T02:39:27;100597.09;;;-6.01;92.24
77685;BME280;66844;46.092;18.268;2024-01-11T02:40:00;100597.97;;;-6.01;91.84
77685;BME280;66844;46.092;18.268;2024-01-11T02:40:32;100600.56;;;-6.01;92.09
77685;BME280;66844;46.092;18.268;2024-01-11T02:41:05;100595.38;;;-6.01;92.19
77685;BME280;66844;46.092;18.268;2024-01-11T02:41:37;100591.97;;;-6.00;92.16
77685;BME280;66844;46.092;18.268;2024-01-11T02:42:09;100589.38;;;-6.00;92.36
77685;BME280;66844;46.092;18.268;2024-01-11T02:42:41;100592.88;;;-5.98;91.81
77685;BME280;66844;46.092;18.268;2024-01-11T02:43:13;100591.09;;;-6.00;92.50
77685;BME280;66844;46.092;18.268;2024-01-11T02:43:48;100585.03;;;-6.01;91.66
77685;BME280;66844;46.092;18.268;2024-01-11T02:44:21;100598.00;;;-5.99;92.63
77685;BME280;66844;46.092;18.268;2024-01-11T02:44:53;100583.31;;;-6.00;92.13
77685;BME280;66844;46.092;18.268;2024-01-11T02:45:25;100587.47;;;-6.05;92.18
77685;BME280;66844;46.092;18.268;2024-01-11T02:45:57;100592.78;;;-6.01;92.62
77685;BME280;66844;46.092;18.268;2024-01-11T02:46:30;100591.09;;;-5.99;91.81
77685;BME280;66844;46.092;18.268;2024-01-11T02:47:02;100583.44;;;-5.96;92.43
77685;BME280;66844;46.092;18.268;2024-01-11T02:47:34;100588.56;;;-5.97;92.06
77685;BME280;66844;46.092;18.268;2024-01-11T02:48:06;100588.63;;;-5.96;91.74
77685;BME280;66844;46.092;18.268;2024-01-11T02:48:39;100588.63;;;-5.96;91.79